Ana Sayfa
METAR-TAF:

METAR-TAF

Havaalanları :

Fort Sill, Oklahoma, Amerika Birleşik Devletleri

Enlem: 34-36N, Boylam: 098-24W, yükseklik: 362 m

Güncel hava durumu gözlemi

Rapor saat 15:55 UTC de 18 dakika önce yapıldı.
Rüzgar batı/güneybatıdan 9 kt ve 19 kt'a kadar ani rüzgarlar
Sıcaklık 34°C
Nem 50%
Basınç 1012 hPa
Görüş mesafesi: 16.1 km
Açık gökyüzü

METAR: KFSI 251555Z AUTO 24009G19KT 10SM CLR 34/22 A2987 RMK AO2 SLPNO T03380219 FZRANO $

Saat: 11:13 (16:13 UTC)


TAF: eksik

4.000'den fazla havaalanı için hava durumu gözlemleri ve tahminleri (METAR ve TAF raporları).

Kullanılabilir istasyonlar harita üzerinde sarı ve kırmızı noktalarla gösterilir.

İstasyonun adını görmek için fareyi noktanın üzerinde gezdirin.

Sonrasında hava gözlem ve tahminlerini görmek için tıklayın.

Haritayı değiştirmek için: yaklaştırmak için siyah artı işaretli yeşil düğmeye ve uzaklaştırmak için de eksi işaretli düğmeye hızla tıklayın; bitişik haritalar için yeşil okları kullanın.


METAR-TAF: